Revel Montgey Airfield

LFIR · Upper Garonne, Occitanie, 法国

使用的TAF站离机场有26 km的距离
2024年3月4日 19:002024年3月5日 04:00有效
时间
星期一
19:00
>40%
星期一
20:00
>40%
星期一
21:00
>40%
星期一
22:00
>40%
星期一
23:00
>40%
星期二
00:00
>40%
星期二
01:00
>40%
星期二
02:00
>40%
星期二
03:00
>40%
代码
IFR
IFR
IFR
IFR
IFR
IFR
IFR
IFR
IFR
天气
光 阵雨 雨
天空晴朗
光 阵雨 雨
天空晴朗
光 阵雨 雨
天空晴朗
光 阵雨 雨
天空晴朗
光 阵雨 雨
天空晴朗
光 阵雨 雨
天空晴朗
光 阵雨 雨
天空晴朗
光 阵雨 雨
天空晴朗
光 阵雨 雨
天空晴朗
能见度
4 km
4 km
4 km
4 km
4 km
4 km
4 km
4 km
4 km
天花板
-
-
-
-
-
-
-
-
-
280°
280°
280°
280°
280°
280°
280°
280°
280°
280°
280°
280°
280°
280°
280°
280°
280°
280°
速度
5 kt
5 kt
5 kt
5 kt
5 kt
5 kt
5 kt
5 kt
5 kt
阵风
温度/星期日

原版的

TAF LFCK 041700Z 0418/0503 28005KT CAVOK
TEMPO 0418/0503 4000 -SHRA BKN010 SCT025TCU

TAF Revel Montgey Airfield

Revel Montgey Airfield是,法国中的小机场。 该机场位于纬度43,48029和经度1,97878。 该机场有一条跑道: 12/30. 本场的ICAO机场代码为LFIR。 机场在Bordeaux FIR中。

该航空气象观测是针对Castres-Mazamet Airport在2024年3月4日 18:00, 当地时间进行的。 从2024年3月4日 19:00到2024年3月5日 04:00, 当地时间有效.

预报

  • 在星期一 19:00和星期二 04:00之间

    • 风: 风来自280°方向,速度为5 kt。
    • CAVOK: 天气为CAVOK。这意味着在5.000 ft或MSA(最低安全高度)以下(以较高者为准)以下没有云。这也意味着没有观测到积雨云或高耸的积云,可见度为10 km 或者更多或更高。此外,不会有雾,降雨或其他重要天气。
  • 暂时在星期一 19:00和星期二 04:00之间

    • 能见度: 4 km
    • 天气: 光 阵雨 雨
    • 乌云: 碎云在1.000 ft的高度 和 疏云,零星散落的云朵 高耸的积云在2.500 ft的高度.

白天

今天,太阳从07:20升起,在18:46降落。 这适用于Revel Montgey Airfield,世界夏令时可能有所不同。 当地时间与世界标准时间之间的时差为+1 小时。 当前,没有夏令时有效。